AirNav   Air Wisconsin Up To $57,000 Bonus
 
 778 users online  

4MO1 Wehrman Airport
Montgomery City, Missouri, USA

GOING TO MONTGOMERY CITY?


FAA INFORMATION EFFECTIVE 02 JANUARY 2020

Location

FAA Identifier: 4MO1
Lat/Long: 39-00-45.5000N 091-25-10.1000W
39-00.758333N 091-25.168333W
39.0126389,-91.4194722
(estimated)
Elevation: 778 ft. / 237.1 m (surveyed)
Variation: 03E (1985)
From city: 4 miles NE of MONTGOMERY CITY, MO
Time zone: UTC -6 (UTC -5 during Daylight Saving Time)
Zip code: 63361

Airport Operations

Airport use: Private use. Permission required prior to landing
Activation date: 03/1966
Control tower: no
ARTCC: KANSAS CITY CENTER
FSS: SAINT LOUIS FLIGHT SERVICE STATION
Attendance: 
Wind indicator: no
Segmented circle: no

Nearby radio navigation aids

VOR radial/distance  VOR name  Freq  Var
FTZr307/28.3FORISTELL VORTAC110.8005E
HLVr094/33.6HALLSVILLE VORTAC114.2006E
COUr072/39.2COLUMBIA VOR/DME110.2000E

Airport Services

Runway Information

Runway 3/21

Dimensions: 2360 x 75 ft. / 719 x 23 m
Surface: turf/gravel, in poor condition
UNEVEN SFC.
GRVL PORTION 1360 FT BY 10 FT.
Gradient: SW.
RUNWAY 3  RUNWAY 21
Latitude: 39-00.586182N39-00.928972N
Longitude: 091-25.286748W091-25.051392W
Elevation: 776.0 ft.762.0 ft.
Traffic pattern: leftleft
Runway heading: 025 magnetic, 028 true205 magnetic, 208 true
Obstructions: 25 ft. trees75 ft. trees, 345 ft. from runway, 4:1 slope to clear

Airport Ownership and Management from official FAA records

Ownership: Privately-owned
Owner: HOWARD Q WEHRMAN REVOCABLE TRUST
12360 GRAVOIS RD
ST LOUIS, MO 63127
Phone (720) 989-6914
Manager: NEIL WEHRMAN
11731 BENT OAKS STREET
PARKER, CO 80138
Phone 720-989-6914

Additional Remarks

NSTD RY SAFETY AREA BYD EACH RY END; INCORRECT GRADE & LENGTH, DITCH AT RY 21 THR, FENCE & TREES AT RY 03 THR.
RWY 03/21; OLD TANKS, TREES, & BRUSH AT VARIOUS DISTANCES ALONG EAST & WEST RWY EDGES IN RY OBJECT FREE AREA & PRIMARY SURFACE. NUMEROUS TALL TREES IN APPROACH & TRANSITIONAL SURFACES AT EACH RY END.
FOR CD CTC MIZZOU APCH AT 417-868-5620/5619.

Instrument Procedures

There are no published instrument procedures at 4MO1.

Some nearby airports with instrument procedures:

KMYJ - Mexico Memorial Airport (21 nm NW)
H19 - Bowling Green Municipal Airport (23 nm NE)
KFTT - Elton Hensley Memorial Airport (29 nm W)
KFYG - Washington Regional Airport (32 nm SE)
KCOU - Columbia Regional Airport (39 nm W)
 
Loc | Ops | Rwys | IFR | FBO | Links
Com | Nav | Svcs | Stats | Notes

Kansas City Aviation Department
 
Area around 4MO1 (Wehrman Airport)
 
Road maps at: MapQuest Bing Google
 
Aerial photo
WARNING: Photo may not be current or correct
Aerial photo of 4MO1 (Wehrman Airport)
Photo by Steve Ruse steve@wotelectronics.com

Do you have a better or more recent aerial photo of Wehrman Airport that you would like to share? If so, please send us your photo.

 
Sectional chart

 
Airport distance calculator
Flying to Wehrman Airport? Find the distance to fly.

From to 4MO1

Sunrise and sunset
Times for 28-Jan-2020
 Local
(UTC-6)
 Zulu
(UTC)
Morning civil twilight06:4812:48
Sunrise07:1713:17
Sunset17:2123:21
Evening civil twilight17:4923:49

Current date and time
Zulu (UTC)  28-Jan-2020 06:50:27
Local (UTC-6)  28-Jan-2020 00:50:27
 
METAR
KMYJ 
21nm NW 
280635Z AUTO 01003KT 10SM OVC007 M01/M01 A3011 RMK AO2
KFYG 
32nm SE 
280615Z AUTO 35004KT 5SM BR OVC006 M01/M01 A3012 RMK AO2
KCOU 
39nm W 
280554Z AUTO 02007KT 5SM BR OVC003 M01/M02 A3010 RMK AO2 SLP200 I1000 I6000 T10061017 10000 21011 400061022 50000
TAF
KCOU 
39nm W 
280520Z 2806/2906 04006KT 4SM BR OVC003 TEMPO 2806/2810 2SM -FZDZ BR FM281500 04005KT 5SM BR OVC007 FM282000 03005KT P6SM OVC010
NOTAMs
Click for the latest NOTAMs
NOTAMs are issued by the DoD/FAA and will open in a separate window not controlled by AirNav.

 

 
 

Would you like to see your business listed on this page?

 If your business provides an interesting product or service to pilots, flight crews, aircraft, or users of the Wehrman Airport, you should consider listing it here.  To start the listing process, click on the button below
 
Add a business
 

Other Pages about Wehrman Airport

Update a link
 
Copyright © AirNav, LLC. All rights reserved. Privacy Policy  Contact